Time;durP1;ratioP1;P1;durP2;ratioP2;P2;SDS_P1;SDS_P2;PMS_P1;PMS_P2;Temp;Humidity;BMP_temperature;BMP_pressure;BME280_temperature;BME280_humidity;BME280_pressure;Samples;Min_cycle;Max_cycle;Signal;HPM_P1;HPM_P2
2023/07/10 00:01:22;;;;;;;13.50;8.20;;;;;;;;;;5143770;27;20051;-64
2023/07/10 00:03:49;;;;;;;13.30;7.63;;;;;;;;;;5146816;27;20506;-64
2023/07/10 00:06:16;;;;;;;14.15;8.52;;;;;;;;;;5125712;27;20098;-64
2023/07/10 00:08:44;;;;;;;12.90;8.45;;;;;;;;;;5123038;27;20393;-64
2023/07/10 00:11:14;;;;;;;15.18;8.30;;;;;;;;;;5143664;27;20035;-64
2023/07/10 00:13:42;;;;;;;10.57;7.05;;;;;;;;;;5146376;27;20374;-64
2023/07/10 00:16:13;;;;;;;12.82;7.95;;;;;;;;;;5120443;27;20063;-64
2023/07/10 00:18:42;;;;;;;13.40;7.13;;;;;;;;;;5148914;27;20047;-64
2023/07/10 00:21:09;;;;;;;14.32;8.48;;;;;;;;;;5148380;27;20476;-64
2023/07/10 00:23:36;;;;;;;16.20;8.55;;;;;;;;;;5139823;27;20065;-64
2023/07/10 00:26:06;;;;;;;12.80;8.23;;;;;;;;;;5138465;27;20046;-64
2023/07/10 00:28:34;;;;;;;13.93;7.65;;;;;;;;;;5147548;27;20042;-64
2023/07/10 00:31:02;;;;;;;13.93;8.25;;;;;;;;;;5147267;27;20042;-64
2023/07/10 00:33:29;;;;;;;13.05;7.70;;;;;;;;;;5138955;27;20043;-64
2023/07/10 00:35:58;;;;;;;16.52;7.88;;;;;;;;;;5131123;27;20489;-64
2023/07/10 00:38:29;;;;;;;12.02;7.95;;;;;;;;;;5120408;27;20057;-64
2023/07/10 00:40:57;;;;;;;10.63;7.32;;;;;;;;;;5138074;27;20054;-64
2023/07/10 00:43:27;;;;;;;13.07;8.07;;;;;;;;;;5122049;27;20382;-64
2023/07/10 00:45:55;;;;;;;10.45;7.28;;;;;;;;;;5141567;27;20039;-64
2023/07/10 00:48:30;;;;;;;15.55;7.05;;;;;;;;;;5140739;27;20050;-64
2023/07/10 00:51:01;;;;;;;18.85;8.43;;;;;;;;;;5140701;27;20042;-64
2023/07/10 00:53:29;;;;;;;11.60;7.20;;;;;;;;;;5137053;27;20058;-64
2023/07/10 00:56:00;;;;;;;11.95;6.65;;;;;;;;;;5140423;27;20719;-64
2023/07/10 00:58:30;;;;;;;11.30;6.80;;;;;;;;;;5143572;27;20127;-64
2023/07/10 01:01:01;;;;;;;13.13;6.25;;;;;;;;;;5148985;27;20051;-64
2023/07/10 01:03:28;;;;;;;10.25;6.15;;;;;;;;;;5142340;27;20394;-64
2023/07/10 01:05:55;;;;;;;10.10;6.22;;;;;;;;;;5137776;27;20051;-64
2023/07/10 01:08:24;;;;;;;6.97;5.28;;;;;;;;;;5138800;27;20043;-64
2023/07/10 01:10:52;;;;;;;8.30;5.50;;;;;;;;;;5144355;27;20050;-64
2023/07/10 01:13:20;;;;;;;10.13;5.65;;;;;;;;;;5143164;27;20074;-64
2023/07/10 01:15:48;;;;;;;11.15;5.65;;;;;;;;;;5135708;27;20119;-64
2023/07/10 01:18:15;;;;;;;9.95;4.93;;;;;;;;;;5143890;27;20107;-64
2023/07/10 01:20:46;;;;;;;12.30;5.00;;;;;;;;;;5144400;27;20051;-64
2023/07/10 01:23:15;;;;;;;6.30;4.30;;;;;;;;;;5137541;27;20051;-64
2023/07/10 01:25:44;;;;;;;7.15;3.80;;;;;;;;;;5136649;27;20504;-64
2023/07/10 01:28:15;;;;;;;6.78;3.40;;;;;;;;;;5147852;27;20074;-64
2023/07/10 01:30:43;;;;;;;5.85;3.05;;;;;;;;;;5138624;27;20500;-65
2023/07/10 01:33:14;;;;;;;4.20;2.75;;;;;;;;;;5122901;27;20375;-64
2023/07/10 01:35:43;;;;;;;6.35;2.75;;;;;;;;;;5148714;27;20042;-64
2023/07/10 01:38:13;;;;;;;4.10;2.65;;;;;;;;;;5142779;27;20047;-64
2023/07/10 01:40:42;;;;;;;7.03;2.80;;;;;;;;;;5145249;27;20045;-64
2023/07/10 01:43:10;;;;;;;7.38;2.40;;;;;;;;;;5143299;27;20053;-64
2023/07/10 01:45:44;;;;;;;4.28;2.50;;;;;;;;;;5147802;27;20043;-64
2023/07/10 01:48:11;;;;;;;4.25;1.75;;;;;;;;;;5140353;27;20721;-64
2023/07/10 01:50:39;;;;;;;7.10;1.83;;;;;;;;;;5122078;27;20058;-64
2023/07/10 01:53:06;;;;;;;4.22;1.92;;;;;;;;;;5142806;27;20725;-64
2023/07/10 01:55:34;;;;;;;4.75;1.73;;;;;;;;;;5140940;27;20074;-64
2023/07/10 01:58:03;;;;;;;3.00;1.90;;;;;;;;;;5145684;27;20515;-64
2023/07/10 02:00:30;;;;;;;4.22;1.65;;;;;;;;;;5146612;27;20097;-64
2023/07/10 02:02:57;;;;;;;4.05;1.77;;;;;;;;;;5145759;27;20042;-64
2023/07/10 02:05:25;;;;;;;6.00;1.92;;;;;;;;;;5140934;27;20050;-64
2023/07/10 02:07:52;;;;;;;3.25;1.52;;;;;;;;;;5142996;27;20054;-64
2023/07/10 02:10:19;;;;;;;3.83;1.30;;;;;;;;;;5148443;27;20363;-64
2023/07/10 02:12:46;;;;;;;7.65;1.40;;;;;;;;;;5149270;27;20053;-64
2023/07/10 02:15:15;;;;;;;4.38;1.50;;;;;;;;;;5137265;27;20358;-64
2023/07/10 02:17:42;;;;;;;1.58;1.15;;;;;;;;;;5141434;27;20099;-64
2023/07/10 02:20:10;;;;;;;2.15;1.35;;;;;;;;;;5144338;27;20061;-64
2023/07/10 02:22:37;;;;;;;3.67;1.20;;;;;;;;;;5147001;27;20062;-64
2023/07/10 02:25:05;;;;;;;2.50;1.25;;;;;;;;;;5139487;27;20047;-64
2023/07/10 02:27:32;;;;;;;1.63;1.40;;;;;;;;;;5150957;27;20054;-64
2023/07/10 02:29:59;;;;;;;2.20;1.08;;;;;;;;;;5145821;27;20081;-64
2023/07/10 02:32:28;;;;;;;2.55;1.30;;;;;;;;;;5147216;27;20674;-64
2023/07/10 02:34:56;;;;;;;3.83;1.20;;;;;;;;;;5149097;27;20454;-64
2023/07/10 02:37:23;;;;;;;2.88;1.20;;;;;;;;;;5142090;27;20116;-64
2023/07/10 02:39:50;;;;;;;2.53;1.27;;;;;;;;;;5148367;27;20039;-64
2023/07/10 02:42:17;;;;;;;2.70;1.10;;;;;;;;;;5148061;27;20690;-64
2023/07/10 02:44:45;;;;;;;3.70;1.40;;;;;;;;;;5146752;27;20042;-64
2023/07/10 02:47:12;;;;;;;2.70;1.25;;;;;;;;;;5141820;27;20051;-64
2023/07/10 02:49:40;;;;;;;4.40;1.50;;;;;;;;;;5148151;27;20065;-65
2023/07/10 02:52:08;;;;;;;3.63;1.45;;;;;;;;;;5146482;27;20051;-65
2023/07/10 02:54:35;;;;;;;2.38;1.40;;;;;;;;;;5128109;27;20042;-64
2023/07/10 02:57:03;;;;;;;3.05;1.65;;;;;;;;;;5148244;27;20038;-65
2023/07/10 02:59:30;;;;;;;5.60;1.70;;;;;;;;;;5151825;27;20051;-65
2023/07/10 03:01:57;;;;;;;2.90;1.38;;;;;;;;;;5146886;27;20042;-64
2023/07/10 03:04:24;;;;;;;2.95;1.48;;;;;;;;;;5127778;27;20050;-64
2023/07/10 03:06:53;;;;;;;4.57;1.95;;;;;;;;;;5148306;27;20050;-64
2023/07/10 03:09:20;;;;;;;3.33;1.60;;;;;;;;;;5146222;27;20051;-65
2023/07/10 03:11:48;;;;;;;2.35;1.33;;;;;;;;;;5144435;27;20082;-64
2023/07/10 03:14:15;;;;;;;4.57;1.23;;;;;;;;;;5145596;27;20047;-64
2023/07/10 03:16:42;;;;;;;2.83;1.40;;;;;;;;;;5137202;27;20051;-64
2023/07/10 03:19:09;;;;;;;3.22;1.63;;;;;;;;;;5141417;27;20054;-64
2023/07/10 03:21:37;;;;;;;4.22;1.50;;;;;;;;;;5144305;27;20382;-64
2023/07/10 03:24:06;;;;;;;4.40;1.60;;;;;;;;;;5140794;27;20421;-65
2023/07/10 03:26:33;;;;;;;3.35;1.63;;;;;;;;;;5140297;27;20062;-64
2023/07/10 03:29:05;;;;;;;3.45;1.63;;;;;;;;;;5145774;27;20409;-65
2023/07/10 03:31:32;;;;;;;3.42;1.55;;;;;;;;;;5147412;27;20405;-65
2023/07/10 03:33:59;;;;;;;3.15;1.55;;;;;;;;;;5149041;27;20054;-64
2023/07/10 03:36:27;;;;;;;4.38;1.90;;;;;;;;;;5144759;27;20046;-65
2023/07/10 03:38:54;;;;;;;5.45;1.83;;;;;;;;;;5143008;27;20039;-65
2023/07/10 03:41:23;;;;;;;1.98;1.40;;;;;;;;;;5130397;27;20050;-65
2023/07/10 03:43:50;;;;;;;3.67;1.92;;;;;;;;;;5143622;27;20043;-64
2023/07/10 03:46:18;;;;;;;3.35;1.63;;;;;;;;;;5149375;27;20130;-64
2023/07/10 03:48:45;;;;;;;2.95;1.63;;;;;;;;;;5148546;27;20051;-64
2023/07/10 03:51:12;;;;;;;3.60;1.50;;;;;;;;;;5149395;27;20726;-65
2023/07/10 03:53:40;;;;;;;5.10;2.00;;;;;;;;;;5141124;27;20049;-65
2023/07/10 03:56:07;;;;;;;2.92;1.70;;;;;;;;;;5144721;27;20058;-65
2023/07/10 03:58:37;;;;;;;4.60;1.75;;;;;;;;;;5141299;27;20073;-65
2023/07/10 04:01:04;;;;;;;4.82;2.10;;;;;;;;;;5141753;27;20043;-65
2023/07/10 04:03:33;;;;;;;3.78;1.85;;;;;;;;;;5139755;27;20069;-65
2023/07/10 04:06:00;;;;;;;7.85;1.85;;;;;;;;;;5143579;27;20070;-65
2023/07/10 04:08:28;;;;;;;3.97;1.90;;;;;;;;;;5139913;27;20051;-65
2023/07/10 04:10:56;;;;;;;5.50;2.25;;;;;;;;;;5137999;27;20042;-65
2023/07/10 04:13:24;;;;;;;3.35;1.80;;;;;;;;;;5122530;27;20055;-65
2023/07/10 04:16:00;;;;;;;2.92;1.80;;;;;;;;;;5143540;27;20074;-65
2023/07/10 04:18:29;;;;;;;2.83;1.70;;;;;;;;;;5144343;27;20485;-65
2023/07/10 04:20:57;;;;;;;3.55;1.60;;;;;;;;;;5149355;27;20046;-65
2023/07/10 04:23:24;;;;;;;4.25;1.85;;;;;;;;;;5147938;27;20054;-65
2023/07/10 04:25:52;;;;;;;6.13;2.13;;;;;;;;;;5145497;27;20055;-65
2023/07/10 04:28:19;;;;;;;5.75;1.98;;;;;;;;;;5143565;27;20104;-65
2023/07/10 04:30:47;;;;;;;5.75;2.00;;;;;;;;;;5146750;27;20058;-65
2023/07/10 04:33:15;;;;;;;4.03;1.90;;;;;;;;;;5145323;27;20126;-65
2023/07/10 04:35:43;;;;;;;6.38;1.90;;;;;;;;;;5142929;27;20150;-65
2023/07/10 04:38:10;;;;;;;6.40;2.13;;;;;;;;;;5143712;27;20772;-65
2023/07/10 04:40:37;;;;;;;4.40;2.05;;;;;;;;;;5141309;27;20413;-65
2023/07/10 04:43:05;;;;;;;8.43;2.35;;;;;;;;;;5140552;27;20047;-65
2023/07/10 04:45:32;;;;;;;4.10;2.33;;;;;;;;;;5121783;27;20458;-65
2023/07/10 04:47:59;;;;;;;7.78;2.42;;;;;;;;;;5145485;27;20047;-65
2023/07/10 04:50:28;;;;;;;8.10;2.78;;;;;;;;;;5146746;27;20059;-65
2023/07/10 04:52:55;;;;;;;7.57;2.70;;;;;;;;;;5146074;27;20043;-65
2023/07/10 04:55:22;;;;;;;6.25;2.63;;;;;;;;;;5127914;27;20397;-66
2023/07/10 04:57:50;;;;;;;5.03;2.25;;;;;;;;;;5143240;27;20548;-65
2023/07/10 05:00:17;;;;;;;4.72;2.42;;;;;;;;;;5127846;27;20520;-65
2023/07/10 05:02:46;;;;;;;7.30;2.15;;;;;;;;;;5140583;27;20046;-65
2023/07/10 05:05:13;;;;;;;4.60;2.10;;;;;;;;;;5143661;27;20043;-65
2023/07/10 05:07:42;;;;;;;5.40;2.42;;;;;;;;;;5142813;27;20129;-66
2023/07/10 05:10:09;;;;;;;7.30;2.63;;;;;;;;;;5142569;27;20050;-65
2023/07/10 05:12:37;;;;;;;3.95;2.25;;;;;;;;;;5125289;27;20459;-65
2023/07/10 05:15:04;;;;;;;7.28;2.60;;;;;;;;;;5135352;27;20051;-65
2023/07/10 05:17:31;;;;;;;6.25;2.65;;;;;;;;;;5146080;27;20053;-65
2023/07/10 05:19:59;;;;;;;4.85;2.30;;;;;;;;;;5147808;27;20099;-65
2023/07/10 05:22:26;;;;;;;9.18;2.75;;;;;;;;;;5144488;27;20051;-66
2023/07/10 05:24:54;;;;;;;7.25;3.05;;;;;;;;;;5130095;27;20053;-65
2023/07/10 05:27:22;;;;;;;8.13;3.03;;;;;;;;;;5139823;27;20042;-65
2023/07/10 05:29:49;;;;;;;8.60;2.70;;;;;;;;;;5138955;27;20054;-65
2023/07/10 05:32:16;;;;;;;4.88;2.28;;;;;;;;;;5143077;27;20501;-65
2023/07/10 05:34:44;;;;;;;6.60;2.55;;;;;;;;;;5135053;27;21216;-66
2023/07/10 05:37:11;;;;;;;4.25;2.60;;;;;;;;;;5139675;27;20085;-66
2023/07/10 05:39:38;;;;;;;6.78;2.70;;;;;;;;;;5141754;27;20043;-66
2023/07/10 05:42:08;;;;;;;5.28;1.92;;;;;;;;;;5138738;27;20043;-66
2023/07/10 05:44:35;;;;;;;5.88;2.10;;;;;;;;;;5139111;27;20457;-65
2023/07/10 05:47:03;;;;;;;4.97;1.98;;;;;;;;;;5142755;27;20054;-65
2023/07/10 05:49:31;;;;;;;9.32;2.15;;;;;;;;;;5141059;27;20055;-66
2023/07/10 05:51:58;;;;;;;5.60;1.70;;;;;;;;;;5145658;27;20051;-66
2023/07/10 05:54:25;;;;;;;7.65;1.85;;;;;;;;;;5140891;27;20043;-66
2023/07/10 05:56:53;;;;;;;7.68;1.55;;;;;;;;;;5141203;27;20423;-66
2023/07/10 05:59:21;;;;;;;5.75;1.38;;;;;;;;;;5143965;27;20043;-65
2023/07/10 06:01:49;;;;;;;5.68;1.35;;;;;;;;;;5146363;27;20043;-65
2023/07/10 06:04:16;;;;;;;6.40;1.67;;;;;;;;;;5144573;27;20053;-65
2023/07/10 06:06:44;;;;;;;6.25;1.92;;;;;;;;;;5145630;27;20527;-66
2023/07/10 06:09:12;;;;;;;4.88;1.50;;;;;;;;;;5138471;27;20138;-66
2023/07/10 06:11:39;;;;;;;6.40;1.35;;;;;;;;;;5139912;27;20053;-65
2023/07/10 06:14:06;;;;;;;6.57;1.30;;;;;;;;;;5136425;27;20043;-66
2023/07/10 06:16:35;;;;;;;8.65;1.27;;;;;;;;;;5148452;27;20485;-66
2023/07/10 06:19:02;;;;;;;3.42;1.20;;;;;;;;;;5144266;27;20062;-66
2023/07/10 06:21:29;;;;;;;7.28;1.48;;;;;;;;;;5145382;27;21000;-66
2023/07/10 06:23:56;;;;;;;5.60;1.50;;;;;;;;;;5140622;27;20043;-66
2023/07/10 06:26:24;;;;;;;5.45;1.52;;;;;;;;;;5143227;27;20375;-65
2023/07/10 06:28:51;;;;;;;5.72;1.40;;;;;;;;;;5139195;27;20055;-65
2023/07/10 06:31:18;;;;;;;9.00;1.70;;;;;;;;;;5137862;27;20042;-65
2023/07/10 06:33:47;;;;;;;7.82;1.30;;;;;;;;;;5145354;27;20058;-65
2023/07/10 06:36:14;;;;;;;4.05;1.20;;;;;;;;;;5125385;27;20035;-66
2023/07/10 06:38:42;;;;;;;5.15;1.15;;;;;;;;;;5146016;27;20046;-65
2023/07/10 06:41:11;;;;;;;4.72;1.17;;;;;;;;;;5145312;27;20053;-66
2023/07/10 06:43:38;;;;;;;5.72;1.35;;;;;;;;;;5147211;27;20050;-66
2023/07/10 06:46:05;;;;;;;6.88;1.23;;;;;;;;;;5147037;27;20035;-66
2023/07/10 06:48:33;;;;;;;9.63;1.52;;;;;;;;;;5145157;27;20043;-66
2023/07/10 06:51:02;;;;;;;5.00;1.30;;;;;;;;;;5149723;27;20099;-65
2023/07/10 06:53:29;;;;;;;6.90;1.40;;;;;;;;;;5146926;27;20413;-66
2023/07/10 06:55:58;;;;;;;4.97;1.42;;;;;;;;;;5146407;27;20049;-66
2023/07/10 06:58:25;;;;;;;9.60;1.52;;;;;;;;;;5145204;27;20043;-66
2023/07/10 07:00:52;;;;;;;6.13;1.67;;;;;;;;;;5143658;27;20121;-65
2023/07/10 07:03:20;;;;;;;5.03;1.20;;;;;;;;;;5149395;27;20047;-65
2023/07/10 07:05:48;;;;;;;10.45;1.63;;;;;;;;;;5141818;27;20114;-66
2023/07/10 07:08:17;;;;;;;8.50;2.05;;;;;;;;;;5146703;27;20049;-66
2023/07/10 07:10:45;;;;;;;6.65;2.00;;;;;;;;;;5147819;27;20045;-67
2023/07/10 07:13:12;;;;;;;8.32;2.03;;;;;;;;;;5147819;27;20058;-66
2023/07/10 07:15:40;;;;;;;10.48;1.98;;;;;;;;;;5146752;27;20043;-65
2023/07/10 07:18:07;;;;;;;5.80;2.03;;;;;;;;;;5146776;27;20054;-66
2023/07/10 07:20:35;;;;;;;9.05;1.58;;;;;;;;;;5138290;27;20124;-67
2023/07/10 07:23:02;;;;;;;4.70;1.65;;;;;;;;;;5142705;27;20058;-66
2023/07/10 07:25:31;;;;;;;9.05;2.38;;;;;;;;;;5144047;27;20090;-66
2023/07/10 07:28:00;;;;;;;5.75;1.92;;;;;;;;;;5151205;27;20053;-67
2023/07/10 07:30:27;;;;;;;6.93;1.70;;;;;;;;;;5147047;27;20047;-65
2023/07/10 07:32:54;;;;;;;5.85;1.40;;;;;;;;;;5143904;27;20047;-66
2023/07/10 07:35:22;;;;;;;5.10;1.83;;;;;;;;;;5146211;27;20053;-66
2023/07/10 07:37:49;;;;;;;4.80;1.52;;;;;;;;;;5149609;27;20466;-65
2023/07/10 07:40:16;;;;;;;9.75;1.73;;;;;;;;;;5140429;27;20088;-67
2023/07/10 07:42:46;;;;;;;7.25;1.77;;;;;;;;;;5142081;27;20104;-66
2023/07/10 07:45:13;;;;;;;6.40;1.90;;;;;;;;;;5145617;27;20051;-65
2023/07/10 07:47:41;;;;;;;11.73;2.70;;;;;;;;;;5140586;27;20073;-66
2023/07/10 07:50:09;;;;;;;8.50;1.75;;;;;;;;;;5146349;27;20047;-67
2023/07/10 07:52:36;;;;;;;5.10;1.67;;;;;;;;;;5144979;27;20073;-66
2023/07/10 07:55:04;;;;;;;7.32;1.90;;;;;;;;;;5136693;27;20541;-66
2023/07/10 07:57:31;;;;;;;6.70;1.63;;;;;;;;;;5147159;27;20087;-65
2023/07/10 08:00:00;;;;;;;7.18;1.80;;;;;;;;;;5146622;27;20378;-65
2023/07/10 08:02:27;;;;;;;8.55;1.73;;;;;;;;;;5119411;27;20502;-66
2023/07/10 08:04:55;;;;;;;8.20;1.70;;;;;;;;;;5144369;27;20034;-66
2023/07/10 08:07:22;;;;;;;8.57;1.75;;;;;;;;;;5145836;27;20051;-65
2023/07/10 08:09:49;;;;;;;10.35;1.88;;;;;;;;;;5146915;27;20409;-66
2023/07/10 08:12:17;;;;;;;6.68;1.50;;;;;;;;;;5144414;27;20472;-66
2023/07/10 08:14:44;;;;;;;9.82;2.03;;;;;;;;;;5146575;27;20042;-66
2023/07/10 08:17:13;;;;;;;5.25;1.90;;;;;;;;;;5145102;27;20512;-66
2023/07/10 08:19:40;;;;;;;6.28;2.40;;;;;;;;;;5145576;27;20071;-66
2023/07/10 08:22:07;;;;;;;12.35;2.10;;;;;;;;;;5146917;27;20047;-66
2023/07/10 08:24:34;;;;;;;9.63;2.38;;;;;;;;;;5145401;27;20074;-66
2023/07/10 08:27:02;;;;;;;6.70;1.90;;;;;;;;;;5137731;27;20051;-67
2023/07/10 08:29:30;;;;;;;7.45;1.90;;;;;;;;;;5124102;27;20058;-66
2023/07/10 08:31:58;;;;;;;8.02;1.75;;;;;;;;;;5145353;27;20053;-65
2023/07/10 08:34:27;;;;;;;8.13;2.22;;;;;;;;;;5149453;27;20069;-66
2023/07/10 08:36:55;;;;;;;9.57;2.30;;;;;;;;;;5123452;27;20043;-66
2023/07/10 08:39:22;;;;;;;9.65;1.70;;;;;;;;;;5148014;27;20121;-66
2023/07/10 08:41:51;;;;;;;10.10;1.65;;;;;;;;;;5143497;27;20103;-66
2023/07/10 08:44:18;;;;;;;8.32;2.10;;;;;;;;;;5146414;27;20050;-65
2023/07/10 08:46:46;;;;;;;8.15;1.90;;;;;;;;;;5147879;27;20038;-65
2023/07/10 08:49:17;;;;;;;6.10;1.50;;;;;;;;;;5148909;27;20405;-65
2023/07/10 08:51:51;;;;;;;6.47;1.58;;;;;;;;;;5146361;27;20466;-65
2023/07/10 08:54:18;;;;;;;6.38;2.03;;;;;;;;;;5135128;27;20058;-65
2023/07/10 08:56:49;;;;;;;8.43;1.80;;;;;;;;;;5140412;27;20087;-66
2023/07/10 08:59:24;;;;;;;8.85;1.83;;;;;;;;;;5135501;27;20520;-67
2023/07/10 09:01:52;;;;;;;5.03;1.35;;;;;;;;;;5137606;27;20405;-65
2023/07/10 09:04:20;;;;;;;6.30;1.55;;;;;;;;;;5142596;27;20099;-65
2023/07/10 09:06:51;;;;;;;5.80;1.50;;;;;;;;;;5139442;27;20057;-66
2023/07/10 09:09:27;;;;;;;7.20;1.95;;;;;;;;;;5136064;27;20153;-66
2023/07/10 09:11:56;;;;;;;7.22;1.77;;;;;;;;;;5124028;27;20435;-65
2023/07/10 09:14:29;;;;;;;8.90;1.80;;;;;;;;;;5147344;27;20410;-66
2023/07/10 09:16:57;;;;;;;5.13;2.03;;;;;;;;;;5144113;27;21880;-66
2023/07/10 09:19:25;;;;;;;8.43;1.85;;;;;;;;;;5148613;27;20061;-66
2023/07/10 09:21:53;;;;;;;4.80;1.77;;;;;;;;;;5145174;27;20050;-65
2023/07/10 09:24:22;;;;;;;7.63;1.73;;;;;;;;;;5144020;27;20051;-66
2023/07/10 09:26:50;;;;;;;7.95;1.95;;;;;;;;;;5142309;27;20039;-65
2023/07/10 09:29:28;;;;;;;7.68;2.17;;;;;;;;;;5139426;27;20087;-64
2023/07/10 09:31:57;;;;;;;8.02;1.60;;;;;;;;;;5141512;27;20054;-65
2023/07/10 09:34:25;;;;;;;6.13;1.88;;;;;;;;;;5145704;27;20051;-65
2023/07/10 09:36:55;;;;;;;6.88;2.05;;;;;;;;;;5144581;27;20504;-65
2023/07/10 09:39:25;;;;;;;7.65;2.00;;;;;;;;;;5147005;27;20042;-65
2023/07/10 09:41:53;;;;;;;5.53;2.10;;;;;;;;;;5146396;27;20500;-66
2023/07/10 09:44:21;;;;;;;9.45;1.80;;;;;;;;;;5125947;27;20096;-65
2023/07/10 09:46:49;;;;;;;7.63;1.83;;;;;;;;;;5142253;27;20038;-65
2023/07/10 09:49:17;;;;;;;8.02;1.88;;;;;;;;;;5140004;27;20162;-65
2023/07/10 09:51:51;;;;;;;6.53;1.70;;;;;;;;;;5140870;27;20051;-65
2023/07/10 09:54:20;;;;;;;7.45;1.92;;;;;;;;;;5140012;27;20127;-65
2023/07/10 09:56:48;;;;;;;11.73;2.08;;;;;;;;;;5141118;27;20424;-65
2023/07/10 09:59:19;;;;;;;5.10;1.80;;;;;;;;;;5146514;27;20766;-65
2023/07/10 10:01:48;;;;;;;7.38;1.63;;;;;;;;;;5143102;27;20539;-66
2023/07/10 10:04:19;;;;;;;4.10;1.20;;;;;;;;;;5140026;27;20062;-65
2023/07/10 10:06:55;;;;;;;6.18;1.83;;;;;;;;;;5130528;27;20314;-65
2023/07/10 10:09:25;;;;;;;4.68;1.15;;;;;;;;;;5137339;27;20043;-66
2023/07/10 10:11:54;;;;;;;4.88;1.40;;;;;;;;;;5138571;27;20078;-66
2023/07/10 10:14:23;;;;;;;5.90;1.10;;;;;;;;;;5135338;27;20047;-66
2023/07/10 10:16:53;;;;;;;5.53;1.13;;;;;;;;;;5144424;27;20514;-66
2023/07/10 10:19:22;;;;;;;5.20;1.15;;;;;;;;;;5120375;27;20053;-65
2023/07/10 10:21:49;;;;;;;7.13;1.10;;;;;;;;;;5143322;27;20046;-65
2023/07/10 10:24:16;;;;;;;7.00;1.27;;;;;;;;;;5137711;27;20058;-65
2023/07/10 10:26:58;;;;;;;5.32;1.25;;;;;;;;;;5142270;27;20428;-66
2023/07/10 10:29:45;;;;;;;2.67;1.00;;;;;;;;;;5150788;27;20485;-66
2023/07/10 10:32:19;;;;;;;4.85;1.23;;;;;;;;;;5148381;27;20081;-66
2023/07/10 10:34:51;;;;;;;4.72;1.02;;;;;;;;;;5145282;27;20620;-66
2023/07/10 10:37:25;;;;;;;3.38;0.93;;;;;;;;;;5144631;27;20099;-66
2023/07/10 10:39:55;;;;;;;4.82;1.00;;;;;;;;;;5145114;27;20051;-66
2023/07/10 10:42:27;;;;;;;3.92;1.50;;;;;;;;;;5144887;27;20058;-66
2023/07/10 10:44:56;;;;;;;6.35;1.50;;;;;;;;;;5149600;27;20050;-66
2023/07/10 10:47:33;;;;;;;4.88;1.25;;;;;;;;;;5151675;27;20053;-66
2023/07/10 10:50:05;;;;;;;4.60;1.10;;;;;;;;;;5124421;27;20081;-66
2023/07/10 10:52:36;;;;;;;5.30;1.35;;;;;;;;;;5138112;27;20047;-67
2023/07/10 10:55:18;;;;;;;2.35;0.85;;;;;;;;;;5145372;27;20107;-67
2023/07/10 10:57:51;;;;;;;4.90;0.88;;;;;;;;;;5137347;27;20078;-66
2023/07/10 11:00:24;;;;;;;4.40;1.25;;;;;;;;;;5147595;27;20054;-66
2023/07/10 11:02:56;;;;;;;4.00;1.20;;;;;;;;;;5143406;27;20145;-66
2023/07/10 11:05:38;;;;;;;3.40;0.80;;;;;;;;;;5145848;27;20054;-66
2023/07/10 11:08:10;;;;;;;6.00;1.10;;;;;;;;;;5146936;27;20047;-66
2023/07/10 11:10:39;;;;;;;3.00;1.17;;;;;;;;;;5124406;27;20512;-66
2023/07/10 11:13:16;;;;;;;4.38;1.27;;;;;;;;;;5141961;27;20038;-66
2023/07/10 11:15:43;;;;;;;5.35;1.45;;;;;;;;;;5128394;27;20054;-66
2023/07/10 11:18:12;;;;;;;4.00;0.90;;;;;;;;;;5150295;27;20053;-66
2023/07/10 11:20:40;;;;;;;2.85;1.27;;;;;;;;;;5146377;27;20039;-66
2023/07/10 11:23:27;;;;;;;5.13;1.52;;;;;;;;;;5150116;27;20043;-66
2023/07/10 11:26:00;;;;;;;5.28;1.30;;;;;;;;;;5125367;27;20494;-65
2023/07/10 11:28:31;;;;;;;3.42;1.27;;;;;;;;;;5146357;27;20111;-66
2023/07/10 11:31:21;;;;;;;3.50;1.33;;;;;;;;;;5146076;27;20053;-66
2023/07/10 11:33:50;;;;;;;5.10;1.42;;;;;;;;;;5139049;27;20051;-66
2023/07/10 11:36:19;;;;;;;3.85;1.45;;;;;;;;;;5147291;27;20129;-65
2023/07/10 11:38:56;;;;;;;8.38;1.48;;;;;;;;;;5148303;27;20046;-66
2023/07/10 11:41:25;;;;;;;3.40;1.65;;;;;;;;;;5149247;27;20091;-66
2023/07/10 11:44:12;;;;;;;6.18;1.10;;;;;;;;;;5146775;27;20042;-64
2023/07/10 11:46:55;;;;;;;4.45;1.20;;;;;;;;;;5144926;27;20054;-64
2023/07/10 11:49:22;;;;;;;5.32;1.20;;;;;;;;;;5144945;27;20057;-64
2023/07/10 11:52:08;;;;;;;2.85;1.02;;;;;;;;;;5147739;27;20047;-65
2023/07/10 11:54:39;;;;;;;4.10;1.05;;;;;;;;;;5138909;27;20050;-63
2023/07/10 11:57:12;;;;;;;6.25;1.63;;;;;;;;;;5141787;27;20071;-64
2023/07/10 11:59:46;;;;;;;4.45;1.48;;;;;;;;;;5140441;27;20053;-64
2023/07/10 12:02:28;;;;;;;4.50;1.15;;;;;;;;;;5143398;27;20577;-63
2023/07/10 12:04:55;;;;;;;5.47;1.30;;;;;;;;;;5141507;27;20125;-64
2023/07/10 12:07:22;;;;;;;2.75;1.10;;;;;;;;;;5144130;27;20061;-64
2023/07/10 12:09:53;;;;;;;5.00;1.33;;;;;;;;;;5140301;27;20049;-64
2023/07/10 12:12:20;;;;;;;3.20;1.27;;;;;;;;;;5137293;27;20061;-65
2023/07/10 12:14:49;;;;;;;4.93;1.45;;;;;;;;;;5143645;27;20046;-64
2023/07/10 12:17:17;;;;;;;4.50;1.30;;;;;;;;;;5143532;27;20046;-64
2023/07/10 12:19:45;;;;;;;4.05;1.40;;;;;;;;;;5146887;27;20510;-64
2023/07/10 12:22:17;;;;;;;5.38;1.33;;;;;;;;;;5143786;27;20120;-65
2023/07/10 12:24:48;;;;;;;5.07;1.27;;;;;;;;;;5149850;27;20626;-64
2023/07/10 12:27:16;;;;;;;4.13;0.98;;;;;;;;;;5146265;27;20078;-64
2023/07/10 12:29:50;;;;;;;3.03;1.10;;;;;;;;;;5147157;27;20126;-64
2023/07/10 12:32:17;;;;;;;4.32;1.15;;;;;;;;;;5128260;27;20054;-64
2023/07/10 12:34:45;;;;;;;2.90;1.13;;;;;;;;;;5148257;27;20057;-65
2023/07/10 12:37:14;;;;;;;4.93;1.50;;;;;;;;;;5147923;27;20039;-63
2023/07/10 12:39:42;;;;;;;3.78;1.10;;;;;;;;;;5143638;27;21410;-64
2023/07/10 12:42:24;;;;;;;2.38;0.93;;;;;;;;;;5142872;27;20056;-64
2023/07/10 12:44:53;;;;;;;4.38;1.33;;;;;;;;;;5148933;27;20481;-65
2023/07/10 12:47:20;;;;;;;3.60;1.13;;;;;;;;;;5137938;27;20528;-64
2023/07/10 12:49:51;;;;;;;2.22;0.80;;;;;;;;;;5125750;27;20568;-64
2023/07/10 12:52:19;;;;;;;3.83;1.73;;;;;;;;;;5143404;27;20039;-64
2023/07/10 12:54:48;;;;;;;2.25;0.90;;;;;;;;;;5125011;27;20047;-65
2023/07/10 12:57:18;;;;;;;1.83;0.90;;;;;;;;;;5144703;27;20106;-64
2023/07/10 12:59:46;;;;;;;1.98;0.80;;;;;;;;;;5124272;27;20501;-64
2023/07/10 13:02:17;;;;;;;1.65;0.85;;;;;;;;;;5141221;27;20497;-65
2023/07/10 13:04:47;;;;;;;2.65;0.75;;;;;;;;;;5144684;27;20486;-64
2023/07/10 13:07:16;;;;;;;0.75;0.60;;;;;;;;;;5146027;27;20043;-64
2023/07/10 13:09:51;;;;;;;4.28;0.85;;;;;;;;;;5125468;27;20098;-64
2023/07/10 13:12:21;;;;;;;2.33;0.85;;;;;;;;;;5143793;27;20050;-65
2023/07/10 13:14:49;;;;;;;2.17;0.90;;;;;;;;;;5146221;27;20133;-64
2023/07/10 13:17:20;;;;;;;1.65;0.93;;;;;;;;;;5140806;27;20089;-64
2023/07/10 13:19:48;;;;;;;1.65;1.00;;;;;;;;;;5145741;27;20070;-65
2023/07/10 13:22:16;;;;;;;1.42;0.82;;;;;;;;;;5144281;27;20715;-64
2023/07/10 13:24:43;;;;;;;3.38;1.00;;;;;;;;;;5145675;27;20133;-65
2023/07/10 13:27:12;;;;;;;2.58;1.08;;;;;;;;;;5147050;27;20043;-66
2023/07/10 13:29:40;;;;;;;4.15;1.23;;;;;;;;;;5148630;27;20142;-65
2023/07/10 13:32:11;;;;;;;2.22;1.20;;;;;;;;;;5147927;27;20043;-65
2023/07/10 13:34:39;;;;;;;2.40;1.08;;;;;;;;;;5147486;27;20468;-66
2023/07/10 13:37:16;;;;;;;3.75;1.33;;;;;;;;;;5145781;27;20039;-69
2023/07/10 13:39:43;;;;;;;2.33;1.35;;;;;;;;;;5143422;27;20405;-69
2023/07/10 13:42:12;;;;;;;3.25;1.10;;;;;;;;;;5147825;27;20833;-69
2023/07/10 13:44:40;;;;;;;1.83;1.10;;;;;;;;;;5144667;27;20055;-69
2023/07/10 13:47:13;;;;;;;3.20;1.00;;;;;;;;;;5143264;27;20130;-69
2023/07/10 13:49:42;;;;;;;2.33;0.85;;;;;;;;;;5144102;27;20042;-70
2023/07/10 13:52:15;;;;;;;2.40;1.10;;;;;;;;;;5149228;27;20059;-69
2023/07/10 13:54:42;;;;;;;5.10;1.30;;;;;;;;;;5149405;27;20051;-70
2023/07/10 13:57:15;;;;;;;3.22;1.38;;;;;;;;;;5149158;27;20057;-71
2023/07/10 13:59:42;;;;;;;2.05;1.00;;;;;;;;;;5146977;27;20501;-70
2023/07/10 14:02:21;;;;;;;5.95;1.15;;;;;;;;;;5149521;27;20053;-71
2023/07/10 14:04:50;;;;;;;4.45;1.55;;;;;;;;;;5150766;27;20489;-71
2023/07/10 14:07:18;;;;;;;4.18;1.23;;;;;;;;;;5141867;27;20065;-71
2023/07/10 14:09:46;;;;;;;2.15;1.13;;;;;;;;;;5146344;27;20700;-72
2023/07/10 14:12:14;;;;;;;3.30;1.40;;;;;;;;;;5128134;27;20049;-69
2023/07/10 14:14:41;;;;;;;3.25;1.13;;;;;;;;;;5152349;27;20134;-71
2023/07/10 14:17:11;;;;;;;1.90;1.05;;;;;;;;;;5148029;27;20043;-71
2023/07/10 14:19:38;;;;;;;4.20;1.30;;;;;;;;;;5128556;27;20051;-70
2023/07/10 14:22:11;;;;;;;2.42;1.50;;;;;;;;;;5148525;27;20050;-72
2023/07/10 14:24:38;;;;;;;4.43;1.45;;;;;;;;;;5150306;27;20047;-70
2023/07/10 14:27:16;;;;;;;2.50;1.20;;;;;;;;;;5144233;27;20070;-72
2023/07/10 14:29:43;;;;;;;2.55;1.40;;;;;;;;;;5147404;27;20053;-70
2023/07/10 14:32:12;;;;;;;2.72;1.20;;;;;;;;;;5145862;27;20051;-71
2023/07/10 14:34:39;;;;;;;3.75;1.27;;;;;;;;;;5135336;27;20469;-71
2023/07/10 14:37:12;;;;;;;2.70;1.20;;;;;;;;;;5149573;27;20052;-71
2023/07/10 14:39:39;;;;;;;3.38;1.30;;;;;;;;;;5135094;27;20043;-71
2023/07/10 14:42:10;;;;;;;3.42;1.50;;;;;;;;;;5133505;27;20047;-73
2023/07/10 14:44:38;;;;;;;3.35;1.30;;;;;;;;;;5126294;27;20077;-74
2023/07/10 14:47:05;;;;;;;3.22;1.52;;;;;;;;;;5144102;27;20054;-74
2023/07/10 14:49:32;;;;;;;2.35;1.25;;;;;;;;;;5150946;27;20046;-73
2023/07/10 14:52:00;;;;;;;3.80;1.52;;;;;;;;;;5146786;27;20396;-74